Ride Results

Tom Quilty Gold Cup (06-06-1981)
Ride distance: 160.0 km

Outcomes - Tom Quilty Gold Cup (06-06-1981)
Division No. of Entries Retired / DNE Completed Withdrawn Ineligible V/O Percentage Completed
OP 51 - 35 7 1 8 68.63%
Totals 51 - 35 7 1 8 68.63%
Results - Tom Quilty Gold Cup (06-06-1981)
No. Rider Horse Place Time Leg Speeds Total
Km/Hr
H/R bpm
Open
50 Max Lockhart Robbie 1 (BC) 10:06:00 17.0, 14.4, 19.6, 13.2 15.84 35, 41, 48, 52, 55 (Avg:49)
41 Gordon Hobday Oonoonba Leo 2 10:06:04 16.6, 14.7, 17.0, 14.7 15.84 38, 50, 56, 46, 52 (Avg:51)
30 Terry Wood Andarra Shareef 3 10:20:51 16.9, 14.5, 18.0, 12.9 15.46 37, 45, 46, 49, 56 (Avg:49)
1 David Marshall Dunwingeri St Nicholas 4 10:28:09 16.7, 14.8, 17.2, 12.8 15.28 38, 48, 52, 44, 48 (Avg:48)
35 Eric Robinson Anatole 5 10:44:11 16.9, 14.5, 18.0, 11.5 14.90 34, 47, 42, 44, 44 (Avg:44)
48 Carmen Batterham Country (Syx Vec) 6 10:44:47 16.9, 14.5, 18.0, 11.5 14.89 32, 40, 42, 50, 51 (Avg:45)
4 Stephen Feighan Rimik 7 11:21:29 16.9, 14.3, 17.0, 10.3 14.09 36, 47, 42, 46, 50 (Avg:46)
17 Arch Anderson Iraki Al Rashid 8 11:51:59 14.7, 13.9, 15.5, 10.8 13.48 32, 45, 48, 46, 47 (Avg:46)
12 Larry Maudsley Yul-arai El Scorpio 9 12:01:00 14.6, 13.4, 16.0, 10.4 13.31 37, 44, 45, 48, 47 (Avg:46)
14 Geoff Pollard Summerland Reynard 9 12:01:00 14.6, 14.0, 15.5, 10.4 13.31 36, 41, 45, 48, 55 (Avg:47)
23 Brian Waters Tailsman 11 12:22:20 14.7, 13.6, 15.9, 9.5 12.93 36, 44, 45, 53, 52 (Avg:48)
7 Linda Doyle Monty 12 12:26:38 14.7, 13.9, 15.7, 9.4 12.86 36, 45, 48, 47, 50 (Avg:47)
22 Peter Waters Dunrovin Sid 13 12:53:09 14.7, 13.9, 15.5, 8.6 12.42 40, 47, 43, 52, 59 (Avg:50)
47 June Petersen Tequila 14 13:22:20 14.7, 11.3, 13.1, 9.3 11.97 35, 50, 46, 48, 49 (Avg:48)
18 Sandra Himsley Ralvon Aeneas 15 13:42:25 13.0, 12.0, 12.9, 9.4 11.67 36, 44, 41, 50, 48 (Avg:45)
28 Diana Perkins Beniah 15 13:42:25 13.0, 12.0, 12.9, 9.4 11.67 40, 42, 50, 49, 52 (Avg:48)
33 Helen Lindsay Merrinvale Voss 17 13:50:01 14.5, 11.5, 13.1, 8.4 11.57 38, 49, 42, 48, 50 (Avg:47)
46 Vivian Hollins Tarash 18 14:06:24 13.7, 12.3, 12.7, 8.3 11.34 38, 44, 46, 53, 52 (Avg:48)
15 Graham Naughton Belron Edgaali 19 14:33:02 13.5, 11.9, 11.2, 8.4 11.00 36, 48, 43, 44, 52 (Avg:46)
36 Patsie Manning Juanita 20 14:38:22 12.6, 12.4, 11.9, 8.2 10.93 32, 39, 35, 40, 54 (Avg:42)
44 Henry Perry Ashwood Drifter 21 14:39:19 16.7, 10.9, 11.6, 7.3 10.92 36, 53, 55, 59, 56 (Avg:55)
6 Gaye Kerr Cedar 22 14:45:29 11.7, 14.4, 12.1, 8.1 10.84 32, 44, 43, 45, 44 (Avg:44)
31 Fred Holland(Bvsc) Coolahlee Park Trumby 23 14:45:30 11.7, 14.4, 12.1, 8.1 10.84 40, 47, 47, 53, 56 (Avg:50)
9 Betty Serpell Gai Grenadier 24 15:34:40 12.3, 12.7, 11.6, 7.1 10.27 44, 40, 45, 55, 42 (Avg:45)
3 Fred Malmborg Ballandean Bright Spark 25 15:40:29 12.3, 12.7, 11.6, 7.0 10.21 28, 41, 45, 52, 50 (Avg:47)
16 Sue Murphy Sharahd Twister 25 15:40:29 12.3, 12.7, 11.6, 7.0 10.21 33, 45, 51, 58, 51 (Avg:51)
43 Paul Chandler Cyclone 27 15:42:16 13.6, 11.7, 10.2, 7.3 10.19 32, 40, 45, 48, 49 (Avg:45)
8 Rowena Carmichael Khasmur 28 15:44:27 11.8, 12.1, 11.7, 7.2 10.16 33, 46, 42, 45, 48 (Avg:45)
51 Kevin Dellow Nightmare 29 15:44:28 11.9, 11.9, 11.8, 7.2 10.16 44, 45, 50, 51, 47 (Avg:48)
34 Trevor Knight Oasis Desert Song 30 15:44:29 11.9, 11.9, 11.7, 7.2 10.16 36, 42, 44, 51, 48 (Avg:46)
26 Cheryl Mackander Cheekye Star 31 17:05:00 11.9, 11.6, 9.6, 6.6 9.37 37, 44, 42, 47, 43 (Avg:44)
40 Ron Malone Guardsman 32 17:32:55 11.8, 11.7, 9.6, 6.2 9.12 36, 40, 42, 47, 45 (Avg:43)
27 Janet(E) Rose Maizie 33 19:24:03 9.4, 10.6, 9.7, 5.7 8.25 34, 46, 44, 55, 41 (Avg:46)
25 Searle Johnston Shinda 34 19:24:04 9.4, 10.6, 9.7, 5.7 8.25 40, 44, 48, 47, 36 (Avg:43)
37 Jenny Sandford Peri 35 19:24:05 11.8, 12.3, 7.0, 5.7 8.25 34, 39, 42, 44, 44 (Avg:42)
10 Bob Carmicheal Nedjmiah Lame L4 0:00:00 13.0, 13.5, 12.8, 7.4 - 30, 42, 41, 43, 45 (Avg:42)
24 Jenny Oliver Glenallan Katyana Lame L4 0:00:00 16.5, 15.1, 18.0, 10.6 - 36, 50, 46, 58, 58 (Avg:53)
42 John Ailmore Mawarra Socks Widthdrawn L3 0:00:00 - - 44, 47, 49, 50 (Avg:48)
11 Steven Fraser Lady Rim Widthdrawn L3 0:00:00 - - 33, 46, 43, 45 (Avg:44)
49 Bernie Harris Bystander Peppi Widthdrawn L3 0:00:00 - - 44, 52, 55, 46 (Avg:51)
19 Deborah King Chameleon Out of Time L3 0:00:00 9.5, 10.4, 8.4 - 38, 41, 45, 50 (Avg:45)
38 Fritz Seehofer Danzig Lame L3 0:00:00 13.1, 11.5, 10.7 - 60, 53, 52, 53 (Avg:52)
13 Robin Keyes Skythos Lame L2 0:00:00 14.7, 13.8 - 40, 50, 46 (Avg:48)
2 Robert Paton Dunwingeri Murdan Widthdrawn L2 0:00:00 - - 36, 46, 45 (Avg:45)
20 Glenn Thompson Vagabondo Widthdrawn L2 0:00:00 - - 40, 52, 58 (Avg:55)
21 Susan Tishler Sheido Lame L2 0:00:00 11.7, 12.6 - 33, 40, 39 (Avg:39)
29 Howard Harris Bikila Widthdrawn L1 0:00:00 - - 34, 45 (Avg:45)
45 Louise Lewis Faraway Bundara Lame L1 0:00:00 16.5 - 32, 41 (Avg:41)
32 Alan Lindsay Burremah Djerribindo Lame L1 0:00:00 16.9 - 32, 45 (Avg:45)
39 Peter Cole Reprieve Lame P/R 0:00:00 - - 34
5 David Mortimer Faraway Vega Widthdrawn P/R 0:00:00 - - 40